Tiempo atmosférico en la estación meteorológica de Carcaixent, València/Valencia (25 m.)



Fecha
DESCASC
Temp. máxima en grados centígrados (hora)
DESCASC
Temp. mínima en grados centígrados (hora)
DESCASC
Temp. media en grados centígrados
DESCASC
Racha de viento máxima en m/sg (hora)
DESCASC
Velocidad máxima media en intervalos de 10 minutos(hora)
DESCASC
Precipitaciones diarias en mm
DESCASC
Precipitaciones de 00:00 a 06:00 en mm
DESCASC
Precipitaciones de 06:00 a 12:00 en mm
DESCASC
Precipitaciones de 12:00 a 18:00 en mm
DESCASC
Precipitaciones de 18:00 a 24:00 en mm
DESCASC
31-03-2020 14.2 (18:50) 7.2 (04:50) 10.7 6.94 (19:50) 3.61 (19:50) 7 2.8 4.2 0 0
29-03-2020 24.3 (18:00) 6.6 (00:00) 15.4 7.22 (15:40) 3.61 (09:50) 0 0 0 0 0
28-03-2020 17.4 (16:20) 3.5 (00:00) 10.4 6.39 (15:10) 3.06 (13:40) 0.2 0 0.2 0 0
27-03-2020 9.9 (14:10) 6.4 (00:00) 8.1 4.72 (00:20) 2.78 (14:30) 4.4 0.4 1.6 2.4 0
26-03-2020 18 (14:30) 4.9 (00:00) 11.5 12.5 (13:20) 6.39 (13:20) 0 0 0 0 0
25-03-2020 11.7 (00:00) 8.5 (00:00) 10.1 6.94 (00:20) 2.78 (04:50) 19.6 7.6 10.8 1.2 0
24-03-2020 14.5 (01:00) 11.7 (00:00) 13.1 12.78 (10:00) 6.39 (17:30) 37.6 2.8 31.4 3.4 0
23-03-2020 16.8 (13:40) 10.6 (00:00) 13.7 10.56 (19:50) 5.83 (19:10) 3 0 0.6 1.6 0.8
22-03-2020 14.6 (12:50) 10.3 (00:00) 12.5 5.83 (13:10) 3.33 (13:10) 9 2.8 0.4 3 2.8
21-03-2020 13.9 (16:30) 10.3 (00:00) 12.1 8.33 (21:30) 2.5 (21:30) 9.4 0 0.2 0.6 8.6
20-03-2020 16.3 (15:50) 12.4 (00:00) 14.3 6.67 (15:20) 4.17 (15:20) 0.6 0.2 0 0.4 0
19-03-2020 15 (17:40) 11.7 (00:00) 13.3 5.83 (11:10) 3.61 (10:50) 1 0 0.2 0.8 0
18-03-2020 17.4 (14:50) 11.6 (00:00) 14.5 8.06 (15:10) 4.72 (16:40) 0.2 0 0 0.2 0
17-03-2020 14.2 (17:20) 9 (00:00) 11.6 10.28 (18:50) 5.28 (19:10) 18.4 7.6 2.6 8 0.2
16-03-2020 16.1 (10:10) 8.6 (00:00) 12.4 10 (11:00) 6.67 (11:00) 3.8 0.2 0.2 2 1.4
15-03-2020 20.5 (13:40) 13 (00:00) 16.8 8.89 (14:20) 5.56 (15:50) 0 0 0 0 0
14-03-2020 22 (13:30) 9 (00:00) 15.5 7.22 (15:40) 4.17 (15:30) 0 0 0 0 0
13-03-2020 19.1 (15:30) 10.2 (23:59) 14.7 6.39 (15:50) 3.89 (15:40) 0.4 0 0.2 0.2 0
12-03-2020 24.8 (13:50) 8.1 (00:00) 16.4 6.94 (16:30) 4.44 (16:30) 0 0 0 0 0
11-03-2020 28.9 (15:10) 6.2 (00:00) 17.5 8.33 (18:40) 5 (18:20) 0 0 0 0 0
10-03-2020 25.6 (18:10) 5.1 (00:00) 15.4 4.72 (12:10) 2.78 (09:10) 0 0 0 0 0
09-03-2020 24.4 (17:00) 8.8 (00:00) 16.6 6.39 (15:20) 3.33 (15:20) 0 0 0 0 0
08-03-2020 26.2 (16:00) 7.5 (00:00) 16.9 7.5 (17:20) 4.72 (12:40) 0 0 0 0 0
07-03-2020 21.8 (16:10) 6.2 (00:00) 14 9.17 (09:20) 5.83 (09:30) 0 0 0 0 0
06-03-2020 19.6 (14:10) 11 (00:00) 15.3 16.11 (11:10) 9.44 (13:40) 0 0 0 0 0
05-03-2020 24.6 (13:40) 10.7 (00:00) 17.7 17.5 (15:20) 9.17 (15:30) 0 0 0 0 0
04-03-2020 24.1 (15:40) 14.5 (23:59) 19.3 12.78 (12:40) 6.39 (12:40) 0 0 0 0 0

Gráficas

Temp. máximas Temp. mínimas Temp. medias Precipitaciones Rachas de viento máximas Velocidades máximas media en intervalos de 10 minutos

Datos horarios

Fecha y hora oficial Temperatura (ºC) Velocidad del viento (km/h) Dirección del viento Racha (km/h) Dirección de racha Precipitación (mm) Presión (hPa) Tendencia (hPa) Humedad (%)
2020-04-02 23:00:00 11.9 4 Noroeste 11 Nordeste 0 -- -- 92
2020-04-02 22:00:00 12.1 6 Nordeste 14 Nordeste 0 -- -- 90
2020-04-02 21:00:00 12.7 6 Nordeste 17 Nordeste 0 -- -- 83
2020-04-02 20:00:00 13.1 11 Nordeste 22 Nordeste 0 -- -- 80
2020-04-02 19:00:00 13.9 9 Nordeste 23 Nordeste 0 -- -- 77
2020-04-02 18:00:00 15.2 13 Este 28 Este 0 -- -- 70
2020-04-02 17:00:00 16.7 16 Este 30 Este 0 -- -- 64
2020-04-02 16:00:00 17.6 11 Este 22 Este 0 -- -- 62
2020-04-02 15:00:00 17.3 8 Nordeste 18 Este 0 -- -- 64
2020-04-02 14:00:00 16.8 5 Nordeste 14 Nordeste 0 -- -- 63
2020-04-02 13:00:00 15.5 9 Este 19 Nordeste 0 -- -- 73
2020-04-02 12:00:00 14.5 8 Nordeste 15 Nordeste 0 -- -- 79
2020-04-02 11:00:00 13.6 5 Este 9 Nordeste 0 -- -- 83
2020-04-02 10:00:00 12.5 0 Calma 2 Este 0 -- -- 88
2020-04-02 09:00:00 12 0 Calma 4 Nordeste 0 -- -- 90
2020-04-02 08:00:00 11.6 0 Calma 5 Nordeste 0 -- -- 92
2020-04-02 07:00:00 11.7 0 Calma 6 Este 0 -- -- 92
2020-04-02 06:00:00 11.7 3 Nordeste 10 Este 0 -- -- 90
2020-04-02 05:00:00 11.7 5 Nordeste 10 Nordeste 0 -- -- 91
2020-04-02 04:00:00 11.6 0 Calma 3 Sudoeste 0 -- -- 92
2020-04-02 03:00:00 11.8 2 Este 9 Este 0 -- -- 90
2020-04-02 02:00:00 11.9 3 Este 14 Este 0 -- -- 88
2020-04-02 01:00:00 12 3 Nordeste 8 Nordeste 0 -- -- 91
2020-04-02 00:00:00 12.2 4 Nordeste 17 Noroeste 0.2 -- -- 92
2020-04-01 23:00:00 12.5 10 Este 29 Este 1.6 -- -- 88
2020-04-01 22:00:00 13.4 6 Sur 19 Este 0.2 -- -- 85
2020-04-01 21:00:00 14.1 2 Noroeste 27 Este 0 -- -- 79
2020-04-01 20:00:00 14.5 9 Sudeste 27 Este 0 -- -- 78
2020-04-01 19:00:00 15.6 13 Este 38 Este 0 -- -- 75
2020-04-01 18:00:00 17.3 23 Este 38 Este 0 -- -- 69
2020-04-01 17:00:00 18.3 15 Sudeste 27 Sudeste 0 -- -- 68
2020-04-01 16:00:00 22.3 10 Norte 27 Nordeste 0 -- -- 54
2020-04-01 15:00:00 21.3 8 Oeste 17 Noroeste 0 -- -- 52
2020-04-01 14:00:00 20.4 6 Norte 18 Sudoeste 0 -- -- 57
2020-04-01 13:00:00 18.9 3 Noroeste 14 Noroeste 0 -- -- 63
2020-04-01 12:00:00 18.2 6 Sudoeste 17 Oeste 0 -- -- 67
2020-04-01 11:00:00 16.3 6 Sudoeste 17 Sur 0 -- -- 81
2020-04-01 10:00:00 14.1 6 Sur 13 Sudeste 0 -- -- 95
2020-04-01 09:00:00 12.1 3 Sudoeste 10 Sudoeste 0 -- -- 97
2020-04-01 08:00:00 11.5 8 Sudoeste 14 Sudoeste 0.2 -- -- 96
2020-04-01 07:00:00 11.9 5 Sudeste 9 Sur 0 -- -- 96
2020-04-01 06:00:00 11.9 3 Sur 5 Sudoeste 0 -- -- 96
2020-04-01 05:00:00 11.9 0 Calma 5 Sudeste 0 -- -- 96
2020-04-01 04:00:00 11.9 0 Calma 5 Sur 0 -- -- 96
2020-04-01 03:00:00 11.9 3 Sur 4 Sudeste 0.2 -- -- 95
2020-04-01 02:00:00 12.1 0 Calma 3 Sur 0.4 -- -- 94
2020-04-01 01:00:00 12.2 3 Oeste 6 Noroeste 0.4 -- -- 93
2020-04-01 00:00:00 12.5 4 Norte 12 Norte 0 -- -- 90
2020-03-31 23:00:00 12.6 4 Nordeste 14 Norte 0 -- -- 87
2020-03-31 22:00:00 12.6 5 Nordeste 17 Norte 0 -- -- 86
2020-03-31 21:00:00 12.6 5 Nordeste 22 Nordeste 0 -- -- 87
2020-03-31 20:00:00 13.3 11 Nordeste 25 Nordeste 0 -- -- 84
2020-03-31 19:00:00 14.1 8 Nordeste 19 Este 0 -- -- 83
2020-03-31 18:00:00 13.6 3 Sudeste 11 Sur 0 -- -- 85
2020-03-31 17:00:00 13.4 7 Sur 12 Sur 0 -- -- 85
2020-03-31 16:00:00 12.3 5 Sur 14 Sur 0 -- -- 87
2020-03-31 15:00:00 11.3 8 Sur 13 Sur 0 -- -- 89
2020-03-31 14:00:00 10.7 7 Sur 12 Sur 0 -- -- 90
2020-03-31 13:00:00 9.8 4 Sur 11 Sur 0 -- -- 95
2020-03-31 12:00:00 9 5 Sur 9 Sur 0 -- -- 96
2020-03-31 11:00:00 8.3 2 Sudoeste 9 Sur 0.2 -- -- 97
2020-03-31 10:00:00 7.8 6 Sur 14 Sur 1.4 -- -- 97
2020-03-31 09:00:00 7.4 0 Calma 8 Sur 2 -- -- 96
2020-03-31 08:00:00 7.4 3 Sur 8 Sudoeste 0.4 -- -- 96
2020-03-31 07:00:00 7.3 3 Sur 8 Sur 0.2 -- -- 96
2020-03-31 06:00:00 7.3 3 Sudoeste 9 Norte 0 -- -- 96
2020-03-31 05:00:00 7.2 5 Nordeste 12 Norte 0.2 -- -- 96
2020-03-31 04:00:00 7.6 7 Norte 13 Noroeste 0.2 -- -- 96
2020-03-31 03:00:00 7.8 7 Norte 15 Noroeste 0.4 -- -- 96
2020-03-31 02:00:00 8.3 8 Norte 17 Nordeste 1.2 -- -- 95
2020-03-31 01:00:00 8.6 9 Nordeste 17 Nordeste 0.8 -- -- 95
2020-03-31 00:00:00 8.5 6 Nordeste 21 Nordeste 0.6 -- -- 94
2020-03-30 23:00:00 8.8 6 Nordeste 17 Nordeste 0 -- -- 92
2020-03-30 22:00:00 9.5 9 Nordeste 24 Este 0 -- -- 85
2020-03-30 21:00:00 9.8 7 Nordeste 21 Este 0.2 -- -- 83
2020-03-30 20:00:00 9.8 10 Nordeste 26 Este 0 -- -- 81
2020-03-30 19:00:00 9.8 8 Nordeste 26 Nordeste 0.6 -- -- 84
2020-03-30 18:00:00 11 8 Nordeste 33 Nordeste 0.2 -- -- 77
2020-03-30 17:00:00 13.1 14 Este 26 Nordeste 0 -- -- 64
2020-03-30 16:00:00 13.7 12 Este 25 Este 0 -- -- 62
2020-03-30 15:00:00 13.9 13 Este 31 Este 0 -- -- 64
2020-03-30 14:00:00 13.9 16 Este 32 Este 0 -- -- 69
2020-03-30 13:00:00 13.6 13 Este 24 Este 0 -- -- 76
2020-03-30 12:00:00 13.8 8 Este 20 Este 0 -- -- 77
2020-03-30 11:00:00 13.7 3 Sudoeste 9 Sur 0 -- -- 84
2020-03-30 10:00:00 12.4 0 Calma 7 Oeste 0 -- -- 92
2020-03-30 09:00:00 9.9 2 Oeste 5 Sudoeste 0 -- -- 95
2020-03-30 08:00:00 8.8 0 Calma 5 Este 0 -- -- 93
2020-03-30 07:00:00 9.2 0 Calma 4 Sur 0 -- -- 92
2020-03-30 06:00:00 9.7 0 Calma 5 Sudoeste 0 -- -- 90
2020-03-30 05:00:00 10.7 0 Calma 9 Sur 0 -- -- 88
2020-03-30 04:00:00 11.8 4 Sur 6 Sur 0 -- -- 86
2020-03-30 03:00:00 13.6 4 Noroeste 10 Este 0 -- -- 82
2020-03-30 02:00:00 14 5 Nordeste 12 Sudeste 0 -- -- 75
2020-03-30 01:00:00 15.5 9 Sur 21 Sur 0 -- -- 63
2020-03-30 00:00:00 16.1 9 Sur 21 Sur 0 -- -- 59
2020-03-29 23:00:00 14.9 10 Sur 15 Sur 0 -- -- 66
2020-03-29 22:00:00 14.4 5 Sur 9 Sur 0 -- -- 64
2020-03-29 21:00:00 17.3 7 Sudoeste 13 Sur 0 -- -- 53
2020-03-29 20:00:00 21.3 6 Sudoeste 19 Sudoeste 0 -- -- 42
2020-03-29 19:00:00 22.9 8 Sudoeste 19 Oeste 0 -- -- 36
2020-03-29 18:00:00 24.3 8 Oeste 19 Oeste 0 -- -- 36
2020-03-29 17:00:00 24 8 Sudoeste 16 Sur 0 -- -- 37
2020-03-29 16:00:00 23.2 8 Sudoeste 26 Sur 0 -- -- 38
2020-03-29 15:00:00 22.4 5 Noroeste 20 Oeste 0 -- -- 43
2020-03-29 14:00:00 21.6 9 Sudoeste 19 Sudoeste 0 -- -- 43
2020-03-29 13:00:00 20.3 8 Oeste 18 Sudoeste 0 -- -- 47
2020-03-29 12:00:00 18.4 6 Sudoeste 17 Sur 0 -- -- 54
2020-03-29 11:00:00 15.5 11 Sur 19 Sur 0 -- -- 59
2020-03-29 10:00:00 12 12 Sur 19 Sur 0 -- -- 70
2020-03-29 09:00:00 8.7 11 Sur 17 Sur 0 -- -- 83
2020-03-29 08:00:00 6.8 8 Sur 14 Sur 0 -- -- 87
2020-03-29 07:00:00 6.8 8 Sur 14 Sur 0 -- -- 87
2020-03-29 06:00:00 7 9 Sur 14 Sur 0 -- -- 87
2020-03-29 05:00:00 6.7 7 Sur 13 Sur 0 -- -- 89
2020-03-29 03:00:00 7.2 9 Sur 14 Sur 0 -- -- 89
2020-03-29 01:00:00 7.2 5 Sur 12 Sur 0 -- -- 88
2020-03-29 00:00:00 7.9 11 Sur 15 Sur 0 -- -- 88
2020-03-28 23:00:00 7.3 6 Sur 9 Sur 0 -- -- 90
2020-03-28 22:00:00 7.8 3 Sudeste 6 Sudoeste 0 -- -- 88
2020-03-28 21:00:00 9.2 0 Calma 6 Sudeste 0 -- -- 84
2020-03-28 20:00:00 11.6 2 Sur 7 Nordeste 0 -- -- 77
2020-03-28 19:00:00 15 3 Nordeste 13 Nordeste 0 -- -- 55
2020-03-28 18:00:00 16.2 7 Nordeste 17 Este 0 -- -- 51
2020-03-28 17:00:00 17 8 Este 21 Nordeste 0 -- -- 48
2020-03-28 16:00:00 17.1 10 Nordeste 23 Nordeste 0 -- -- 50
2020-03-28 15:00:00 17 8 Nordeste 19 Nordeste 0 -- -- 50
2020-03-28 14:00:00 16.9 9 Nordeste 21 Nordeste 0 -- -- 49
2020-03-28 13:00:00 15.8 6 Nordeste 18 Noroeste 0 -- -- 51
2020-03-28 12:00:00 14.8 5 Norte 13 Oeste 0 -- -- 56
2020-03-28 11:00:00 13.9 5 Sur 13 Sudoeste 0 -- -- 67
2020-03-28 10:00:00 11.4 6 Sur 15 Sur 0 -- -- 79
2020-03-28 09:00:00 8.7 9 Sur 13 Sur 0 -- -- 96
2020-03-28 08:00:00 6.1 7 Sur 10 Sur 0.2 -- -- 99
2020-03-28 07:00:00 5 5 Sur 9 Sur 0 -- -- 97
2020-03-28 06:00:00 4.4 4 Sur 8 Sur 0 -- -- 97
2020-03-28 05:00:00 3.5 0 Calma -- -- 0 -- -- 96
2020-03-28 04:00:00 4.5 0 Calma 2 Sudoeste 0 -- -- 96
2020-03-28 03:00:00 5.8 0 Calma 4 Sur 0 -- -- 96
2020-03-28 02:00:00 7.3 0 Calma 5 Sudeste 0 -- -- 96
2020-03-28 01:00:00 7.6 3 Sur 6 Sur 0 -- -- 97
2020-03-28 00:00:00 7.2 2 Sur 8 Sur 0 -- -- 96
2020-03-27 23:00:00 6.7 2 Sur 8 Sur 0 -- -- 95
2020-03-27 22:00:00 7.4 3 Sur 6 Sudeste 0 -- -- 94
2020-03-27 21:00:00 8.4 5 Sur 6 Sur 0 -- -- 94
2020-03-27 20:00:00 9.2 3 Sudeste 4 Sudeste 0 -- -- 93
2020-03-27 19:00:00 9.5 3 Noroeste 9 Norte 0 -- -- 91
2020-03-27 18:00:00 9.6 5 Norte 8 Norte 0 -- -- 92
2020-03-27 17:00:00 9.6 4 Norte 12 Nordeste 0.2 -- -- 92
2020-03-27 16:00:00 9.7 7 Norte 15 Nordeste 0.4 -- -- 94
2020-03-27 15:00:00 9.5 6 Nordeste 17 Nordeste 0.8 -- -- 93
2020-03-27 14:00:00 9.8 8 Norte 15 Norte 0.2 -- -- 92
2020-03-27 13:00:00 9.7 5 Noroeste 11 Noroeste 0.8 -- -- 93
2020-03-27 12:00:00 9.3 2 Sudoeste 9 Sudoeste 0.2 -- -- 92
2020-03-27 11:00:00 8.8 6 Sur 9 Sur 1 -- -- 92
2020-03-27 10:00:00 8.6 2 Sudoeste 8 Sur 0.2 -- -- 90
2020-03-27 09:00:00 8.5 4 Sudoeste 8 Sudoeste 0 -- -- 91
2020-03-27 08:00:00 7.6 0 Calma 7 Sur 0.2 -- -- 93
2020-03-27 07:00:00 7.4 0 Calma 11 Sur 0 -- -- 92
2020-03-27 06:00:00 7.4 4 Sudeste 6 Sur 0.4 -- -- 92
2020-03-27 05:00:00 7.1 2 Sur 5 Este 0 -- -- 92
2020-03-27 04:00:00 6.4 0 Calma 6 Oeste 0 -- -- 88
2020-03-27 03:00:00 7.4 0 Calma 8 Norte 0 -- -- 88
2020-03-27 02:00:00 8 4 Norte 11 Norte 0 -- -- 83
2020-03-27 01:00:00 9.1 6 Norte 17 Nordeste 0 -- -- 83
2020-03-27 00:00:00 9.6 7 Nordeste 17 Nordeste 0 -- -- 84
2020-03-26 23:00:00 9.8 2 Nordeste 19 Este 0 -- -- 82
2020-03-26 22:00:00 10.1 9 Este 19 Nordeste 0 -- -- 81
2020-03-26 21:00:00 10 8 Nordeste 14 Este 0 -- -- 81
2020-03-26 20:00:00 10.5 4 Nordeste 5 Nordeste 0 -- -- 81
2020-03-26 19:00:00 12.1 4 Este 13 Este 0 -- -- 65
2020-03-26 18:00:00 12.8 8 Sudeste 31 Este 0 -- -- 58
2020-03-26 17:00:00 13.2 17 Este 39 Nordeste 0 -- -- 58
2020-03-26 16:00:00 15.3 17 Este 28 Este 0 -- -- 50
2020-03-26 15:00:00 16.7 17 Nordeste 40 Norte 0 -- -- 45
2020-03-26 14:00:00 17.6 19 Norte 45 Noroeste 0 -- -- 39
2020-03-26 13:00:00 16.9 22 Norte 37 Norte 0 -- -- 37
2020-03-26 12:00:00 16 8 Noroeste 18 Oeste 0 -- -- 49
2020-03-26 11:00:00 14.2 3 Norte 8 Noroeste 0 -- -- 70
2020-03-26 10:00:00 12 4 Sudoeste 11 Sur 0 -- -- 94
2020-03-26 09:00:00 8.4 3 Sudoeste 7 Sudoeste 0 -- -- 100
2020-03-26 08:00:00 6.1 0 Calma 9 Noroeste 0 -- -- 99
2020-03-26 07:00:00 5 0 Calma 5 Sudeste 0 -- -- 98
2020-03-26 06:00:00 5.2 2 Sur 3 Sur 0 -- -- 97
2020-03-26 05:00:00 6.1 5 Sur 8 Sudeste 0 -- -- 97
2020-03-26 04:00:00 6.9 3 Sudoeste 6 Sur 0 -- -- 97
2020-03-26 03:00:00 7.3 0 Calma 6 Oeste 0 -- -- 97
2020-03-26 02:00:00 7.2 2 Sur 4 Oeste 0 -- -- 97
2020-03-26 01:00:00 7.1 2 Sudeste 6 Sudeste 0 -- -- 95
2020-03-26 00:00:00 8.5 0 Calma 6 Sur 0 -- -- 95
2020-03-25 23:00:00 9.3 3 Sudoeste 5 Sur 0 -- -- 96
2020-03-25 22:00:00 9.4 2 Sudoeste 4 Sur 0 -- -- 96
2020-03-25 21:00:00 9.6 3 Sur 6 Sudeste 0 -- -- 95
2020-03-25 20:00:00 9.9 3 Sudeste 6 Sudeste 0 -- -- 94
2020-03-25 19:00:00 10.1 0 Calma 6 Noroeste 0 -- -- 91
2020-03-25 18:00:00 10.1 2 Oeste 4 Oeste 0 -- -- 90
2020-03-25 17:00:00 10 2 Este 8 Nordeste 0 -- -- 89
2020-03-25 16:00:00 9.9 4 Este 18 Nordeste 0 -- -- 88
2020-03-25 15:00:00 10.9 3 Nordeste 12 Norte 0 -- -- 92
2020-03-25 14:00:00 9.8 0 Calma 4 Sur 0 -- -- 95
2020-03-25 13:00:00 9.5 3 Sur 4 Sur 1.2 -- -- 96
2020-03-25 12:00:00 9.2 3 Sudoeste 6 Sudoeste 3.6 -- -- 96
2020-03-25 11:00:00 9.3 3 Sudoeste 7 Sudoeste 1.4 -- -- 96
2020-03-25 10:00:00 9.2 2 Sudoeste 6 Sur 2.6 -- -- 96
2020-03-25 09:00:00 9.4 0 Calma 6 Noroeste 2.4 -- -- 96
2020-03-25 08:00:00 9.2 3 Sudeste 6 Sudoeste 0.2 -- -- 97
2020-03-25 07:00:00 9.1 0 Calma 4 Nordeste 0.6 -- -- 96
2020-03-25 06:00:00 9 0 Calma 13 Noroeste 0.2 -- -- 96
2020-03-25 05:00:00 9.1 10 Noroeste 16 Noroeste 2.4 -- -- 96
2020-03-25 04:00:00 9.3 4 Norte 7 Norte 0.8 -- -- 95
2020-03-25 03:00:00 9.4 6 Nordeste 20 Nordeste 3.4 -- -- 92
2020-03-25 02:00:00 10 8 Norte 18 Nordeste 0.4 -- -- 90
2020-03-25 01:00:00 10.9 6 Nordeste 25 Este 0.4 -- -- 87
2020-03-25 00:00:00 11.7 6 Nordeste 23 Nordeste 0 -- -- 76
2020-03-24 23:00:00 12 12 Nordeste 27 Este 0 -- -- 73
2020-03-24 22:00:00 12.1 7 Nordeste 22 Nordeste 0 -- -- 78
2020-03-24 21:00:00 12.4 12 Nordeste 27 Nordeste 0 -- -- 76
2020-03-24 20:00:00 12.4 9 Nordeste 30 Nordeste 0 -- -- 79
2020-03-24 19:00:00 12.8 15 Nordeste 36 Nordeste 0 -- -- 78
2020-03-24 18:00:00 13.1 17 Nordeste 40 Nordeste 0 -- -- 79
2020-03-24 17:00:00 13.1 19 Nordeste 37 Nordeste 0 -- -- 80
2020-03-24 16:00:00 13 20 Nordeste 39 Nordeste 0 -- -- 82
2020-03-24 15:00:00 12.5 16 Nordeste 33 Nordeste 0.4 -- -- 87
2020-03-24 14:00:00 12.4 17 Nordeste 35 Este 0.8 -- -- 90
2020-03-24 13:00:00 12.4 15 Nordeste 38 Nordeste 2.2 -- -- 91
2020-03-24 12:00:00 12.5 19 Nordeste 40 Este 4 -- -- 93
2020-03-24 11:00:00 12.9 17 Nordeste 38 Nordeste 3.2 -- -- 94
2020-03-24 10:00:00 12.9 21 Nordeste 46 Este 1.2 -- -- 94
2020-03-24 09:00:00 12.5 19 Nordeste 41 Este 14.8 -- -- 95
2020-03-24 08:00:00 12.8 18 Nordeste 43 Nordeste 8.2 -- -- 94
2020-03-24 07:00:00 13.6 18 Nordeste 39 Nordeste 0 -- -- 91
2020-03-24 06:00:00 13.7 17 Nordeste 40 Nordeste 1.2 -- -- 92
2020-03-24 05:00:00 13.9 18 Nordeste 42 Nordeste 0 -- -- 91
2020-03-24 04:00:00 14 12 Nordeste 33 Nordeste 0 -- -- 92
2020-03-24 03:00:00 14.2 17 Este 36 Este 0.4 -- -- 91
2020-03-24 02:00:00 14.2 14 Este 34 Este 1 -- -- 89
2020-03-24 01:00:00 14.5 17 Nordeste 32 Este 0.2 -- -- 90
2020-03-24 00:00:00 14.3 15 Este 32 Nordeste 0.8 -- -- 92
2020-03-23 23:00:00 14.7 11 Este 30 Nordeste 0 -- -- 88
2020-03-23 22:00:00 14.6 10 Nordeste 29 Este 0 -- -- 86
2020-03-23 21:00:00 14.5 15 Nordeste 32 Nordeste 0 -- -- 88
2020-03-23 20:00:00 14.6 14 Nordeste 38 Nordeste 0 -- -- 87
2020-03-23 19:00:00 14.8 17 Este 37 Nordeste 0 -- -- 86
2020-03-23 18:00:00 15.2 10 Nordeste 25 Este 0 -- -- 89
2020-03-23 17:00:00 15.4 14 Nordeste 25 Nordeste 0 -- -- 87
2020-03-23 16:00:00 15.1 15 Nordeste 26 Nordeste 0.2 -- -- 90
2020-03-23 15:00:00 15 10 Este 27 Este 1.2 -- -- 92
2020-03-23 14:00:00 15.6 15 Este 26 Este 0.2 -- -- 85
2020-03-23 13:00:00 15.8 6 Nordeste 17 Nordeste 0 -- -- 90
2020-03-23 12:00:00 15.6 8 Este 13 Este 0.6 -- -- 88
2020-03-23 11:00:00 15.7 6 Nordeste 12 Nordeste 0 -- -- 95
2020-03-23 10:00:00 13.7 3 Nordeste 6 Nordeste 0 -- -- 98
2020-03-23 09:00:00 12.9 0 Calma -- -- 0 -- -- 98
2020-03-23 08:00:00 11.5 0 Calma 5 Sur 0 -- -- 98
2020-03-23 07:00:00 11 2 Sur 7 Sur 0 -- -- 98
2020-03-23 06:00:00 10.9 0 Calma 5 Sur 0 -- -- 98
2020-03-23 05:00:00 10.8 4 Sur 5 Sur 0 -- -- 98
2020-03-23 04:00:00 10.7 0 Calma 3 Sur 0 -- -- 97
2020-03-23 03:00:00 10.6 2 Oeste 5 Sur 0 -- -- 97
2020-03-23 02:00:00 11.3 0 Calma 6 Este 0 -- -- 97
2020-03-23 01:00:00 12.1 0 Calma 8 Nordeste 0 -- -- 96
2020-03-23 00:00:00 12.4 5 Este 14 Este 0 -- -- 96
2020-03-22 23:00:00 12.5 6 Nordeste 11 Este 0.8 -- -- 97
2020-03-22 22:00:00 12.5 4 Nordeste 8 Nordeste 1 -- -- 96
2020-03-22 21:00:00 12.6 3 Nordeste 13 Nordeste 0.4 -- -- 96
2020-03-22 20:00:00 12.5 7 Nordeste 13 Nordeste 0.6 -- -- 95
2020-03-22 19:00:00 12.8 5 Nordeste 14 Nordeste 0 -- -- 94
2020-03-22 18:00:00 12.9 8 Nordeste 14 Nordeste 0 -- -- 93
2020-03-22 17:00:00 13.3 4 Nordeste 14 Nordeste 0.4 -- -- 94
2020-03-22 16:00:00 13 5 Este 19 Este 2.6 -- -- 94
2020-03-22 15:00:00 13.7 8 Nordeste 15 Nordeste 0 -- -- 89
2020-03-22 14:00:00 13.7 7 Nordeste 21 Nordeste 0 -- -- 84
2020-03-22 13:00:00 14.6 10 Nordeste 20 Este 0 -- -- 80
2020-03-22 12:00:00 13.8 6 Nordeste 12 Nordeste 0 -- -- 89
2020-03-22 11:00:00 12.1 0 Calma -- -- 0 -- -- 96
2020-03-22 10:00:00 11.2 3 Sur 8 Sur 0 -- -- 97
2020-03-22 09:00:00 10.9 2 Sur 3 Sudoeste 0.4 -- -- 97
2020-03-22 08:00:00 10.6 0 Calma 6 Sur 0 -- -- 97
2020-03-22 07:00:00 10.4 3 Sur 4 Sur 0 -- -- 97
2020-03-22 06:00:00 10.3 0 Calma 6 Sur 0 -- -- 97
2020-03-22 05:00:00 10.3 3 Sur 8 Sur 0 -- -- 97
2020-03-22 04:00:00 10.3 2 Oeste 6 Sur 1.6 -- -- 97
2020-03-22 03:00:00 10.3 5 Sur 8 Sur 0.8 -- -- 97
2020-03-22 02:00:00 10.4 4 Sur 8 Sur 0.2 -- -- 97
2020-03-22 01:00:00 10.4 3 Sudoeste 9 Sur 0.2 -- -- 96
2020-03-22 00:00:00 10.3 3 Sur 12 Sur 0.8 -- -- 96
2020-03-21 23:00:00 10.5 5 Sur 13 Sudoeste 1.6 -- -- 96
2020-03-21 22:00:00 10.8 8 Sudoeste 30 Oeste 5.8 -- -- 95
2020-03-21 21:00:00 12.7 3 Sur 5 Sur 0.2 -- -- 95
2020-03-21 20:00:00 12.8 0 Calma 5 Sudeste 0.2 -- -- 94
2020-03-21 19:00:00 13.1 0 Calma 6 Sudoeste 0 -- -- 93
2020-03-21 18:00:00 13.5 0 Calma 8 Nordeste 0 -- -- 91
2020-03-21 17:00:00 13.8 5 Nordeste 13 Este 0 -- -- 86
2020-03-21 16:00:00 13.4 3 Norte 9 Nordeste 0 -- -- 94
2020-03-21 15:00:00 12.6 4 Norte 12 Noroeste 0 -- -- 95
2020-03-21 14:00:00 12.2 5 Noroeste 9 Oeste 0.4 -- -- 94
2020-03-21 13:00:00 12 3 Sudoeste 10 Oeste 0.2 -- -- 93
2020-03-21 12:00:00 11.9 6 Norte 9 Norte 0.2 -- -- 92
2020-03-21 11:00:00 12.5 4 Nordeste 9 Noroeste 0 -- -- 87
2020-03-21 10:00:00 12.5 4 Noroeste 8 Oeste 0 -- -- 85
2020-03-21 09:00:00 12.2 0 Calma 3 Este 0 -- -- 89
2020-03-21 08:00:00 11.8 0 Calma 4 Nordeste 0 -- -- 90
2020-03-21 07:00:00 11.8 2 Nordeste 8 Nordeste 0 -- -- 90
2020-03-21 06:00:00 11.9 4 Nordeste 10 Norte 0 -- -- 90
2020-03-21 05:00:00 12.1 5 Nordeste 11 Norte 0 -- -- 91
2020-03-21 04:00:00 12.3 4 Norte 12 Norte 0 -- -- 91
2020-03-21 03:00:00 12.4 3 Nordeste 9 Norte 0 -- -- 92
2020-03-21 02:00:00 12.4 5 Noroeste 9 Noroeste 0 -- -- 91
2020-03-21 01:00:00 13.2 5 Noroeste 10 Nordeste 0 -- -- 87
2020-03-21 00:00:00 13.5 6 Nordeste 15 Nordeste 0 -- -- 83
2020-03-20 23:00:00 13.5 8 Nordeste 22 Nordeste 0 -- -- 83
2020-03-20 22:00:00 13.2 8 Nordeste 14 Este 0 -- -- 90
2020-03-20 21:00:00 13.2 7 Nordeste 19 Nordeste 0 -- -- 90
2020-03-20 20:00:00 13.7 11 Nordeste 22 Nordeste 0 -- -- 88
2020-03-20 19:00:00 14 11 Nordeste 20 Nordeste 0 -- -- 83
2020-03-20 18:00:00 14.7 12 Nordeste 22 Nordeste 0 -- -- 80
2020-03-20 17:00:00 14.9 13 Nordeste 23 Nordeste 0 -- -- 79
2020-03-20 16:00:00 16.1 12 Nordeste 24 Nordeste 0 -- -- 75
2020-03-20 15:00:00 15.1 12 Nordeste 23 Nordeste 0 -- -- 75
2020-03-20 14:00:00 15.8 8 Este 14 Sudeste 0.2 -- -- 75
2020-03-20 13:00:00 13.9 5 Nordeste 21 Nordeste 0.2 -- -- 90
2020-03-20 12:00:00 13.3 8 Nordeste 23 Nordeste 0 -- -- 89
2020-03-20 11:00:00 13.3 9 Nordeste 23 Nordeste 0 -- -- 88
2020-03-20 10:00:00 13.2 9 Nordeste 20 Nordeste 0 -- -- 90
2020-03-20 09:00:00 12.9 5 Norte 12 Nordeste 0 -- -- 89
2020-03-20 08:00:00 12.5 6 Nordeste 15 Este 0 -- -- 90
2020-03-20 07:00:00 12.4 4 Norte 13 Nordeste 0 -- -- 92
2020-03-20 06:00:00 12.5 8 Norte 13 Norte 0 -- -- 92
2020-03-20 05:00:00 12.6 7 Nordeste 12 Nordeste 0 -- -- 92
2020-03-20 04:00:00 12.7 6 Nordeste 13 Nordeste 0 -- -- 92
2020-03-20 03:00:00 13 8 Nordeste 18 Nordeste 0 -- -- 90
2020-03-20 02:00:00 13.1 10 Este 18 Nordeste 0.2 -- -- 92
2020-03-20 01:00:00 13.1 6 Nordeste 15 Nordeste 0 -- -- 92
2020-03-20 00:00:00 13.2 8 Norte 13 Norte 0 -- -- 93
2020-03-19 23:00:00 13.4 6 Nordeste 12 Nordeste 0 -- -- 93
2020-03-19 22:00:00 13.5 7 Nordeste 15 Nordeste 0 -- -- 93
2020-03-19 21:00:00 13.5 8 Nordeste 14 Nordeste 0 -- -- 93
2020-03-19 20:00:00 13.5 6 Nordeste 10 Norte 0 -- -- 91
2020-03-19 19:00:00 13.9 6 Nordeste 9 Nordeste 0 -- -- 86
2020-03-19 18:00:00 14.8 5 Nordeste 12 Nordeste 0 -- -- 83
2020-03-19 17:00:00 14.6 3 Nordeste 10 Nordeste 0 -- -- 90
2020-03-19 16:00:00 13.9 3 Nordeste 14 Nordeste 0.4 -- -- 93
2020-03-19 15:00:00 14.2 8 Nordeste 19 Nordeste 0 -- -- 89
2020-03-19 14:00:00 14.3 9 Nordeste 16 Nordeste 0 -- -- 91
2020-03-19 13:00:00 13.9 5 Norte 17 Norte 0.4 -- -- 93
2020-03-19 12:00:00 13.4 4 Nordeste 21 Nordeste 0.2 -- -- 92
2020-03-19 11:00:00 13.5 11 Nordeste 20 Nordeste 0 -- -- 87
2020-03-19 10:00:00 13.3 9 Nordeste 18 Nordeste 0 -- -- 86
2020-03-19 09:00:00 12.4 7 Nordeste 11 Nordeste 0 -- -- 90
2020-03-19 08:00:00 12 3 Nordeste 6 Nordeste 0 -- -- 92
2020-03-19 07:00:00 11.8 4 Nordeste 8 Nordeste 0 -- -- 93
2020-03-19 06:00:00 11.9 4 Nordeste 8 Nordeste 0 -- -- 94
2020-03-19 05:00:00 12 3 Sur 4 Sur 0 -- -- 94
2020-03-19 04:00:00 11.9 0 Calma 8 Norte 0 -- -- 94
2020-03-19 03:00:00 11.7 3 Nordeste 7 Nordeste 0 -- -- 94
2020-03-19 02:00:00 11.8 3 Norte 6 Norte 0 -- -- 93
2020-03-19 01:00:00 12 4 Nordeste 11 Este 0 -- -- 93
2020-03-19 00:00:00 12 0 Calma 4 Noroeste 0 -- -- 94
2020-03-18 23:00:00 11.9 0 Calma 5 Norte 0 -- -- 93
2020-03-18 22:00:00 11.9 3 Sudoeste 7 Oeste 0 -- -- 92
2020-03-18 21:00:00 12.3 6 Nordeste 10 Nordeste 0 -- -- 91
2020-03-18 20:00:00 13.1 5 Nordeste 13 Nordeste 0 -- -- 88
2020-03-18 19:00:00 14.3 9 Nordeste 18 Nordeste 0 -- -- 82
2020-03-18 18:00:00 15.6 9 Nordeste 22 Este 0 -- -- 73
2020-03-18 17:00:00 16.4 12 Este 27 Nordeste 0 -- -- 70
2020-03-18 16:00:00 16.9 13 Nordeste 29 Este 0 -- -- 71
2020-03-18 15:00:00 17.2 16 Nordeste 28 Este 0.2 -- -- 67
2020-03-18 14:00:00 17.1 16 Nordeste 28 Nordeste 0 -- -- 65
2020-03-18 13:00:00 16.4 12 Nordeste 24 Nordeste 0 -- -- 70
2020-03-18 12:00:00 15.3 12 Nordeste 22 Nordeste 0 -- -- 78
2020-03-18 11:00:00 15.2 12 Nordeste 24 Nordeste 0 -- -- 80
2020-03-18 10:00:00 14.5 10 Nordeste 21 Norte 0 -- -- 88
2020-03-18 09:00:00 13.3 5 Noroeste 9 Noroeste 0 -- -- 91
2020-03-18 08:00:00 12.9 5 Noroeste 13 Nordeste 0 -- -- 92
2020-03-18 07:00:00 13.4 7 Nordeste 17 Nordeste 0 -- -- 92
2020-03-18 06:00:00 13.6 10 Nordeste 20 Nordeste 0 -- -- 93
2020-03-18 05:00:00 13.4 10 Norte 23 Nordeste 0 -- -- 90
2020-03-18 04:00:00 13.6 14 Nordeste 29 Norte 0 -- -- 90
2020-03-18 03:00:00 13.7 12 Nordeste 24 Norte 0 -- -- 92
2020-03-18 02:00:00 13.6 12 Nordeste 25 Nordeste 0 -- -- 92
2020-03-18 01:00:00 13.6 12 Nordeste 25 Norte 0 -- -- 93
2020-03-18 00:00:00 14 10 Nordeste 26 Nordeste 0 -- -- 94
2020-03-17 23:00:00 14.1 14 Nordeste 31 Nordeste 0 -- -- 94
2020-03-17 22:00:00 14 15 Nordeste 33 Nordeste 0 -- -- 94
2020-03-17 21:00:00 14 17 Nordeste 33 Nordeste 0 -- -- 95
2020-03-17 20:00:00 14 17 Nordeste 37 Nordeste 0.2 -- -- 96
2020-03-17 19:00:00 14.1 16 Nordeste 37 Nordeste 0 -- -- 97
2020-03-17 18:00:00 14.1 17 Nordeste 37 Nordeste 0.6 -- -- 97
2020-03-17 17:00:00 14.1 16 Nordeste 29 Nordeste 3.6 -- -- 97
2020-03-17 16:00:00 12.2 2 Sudoeste 7 Sur 2.6 -- -- 96
2020-03-17 15:00:00 12.2 4 Sur 12 Sur 0.8 -- -- 95
2020-03-17 14:00:00 12.1 8 Sur 13 Sur 0.2 -- -- 95
2020-03-17 13:00:00 11.9 6 Sur 9 Sur 0.2 -- -- 95
2020-03-17 12:00:00 11.4 7 Sur 11 Sur 0.6 -- -- 95
2020-03-17 11:00:00 10.9 3 Sur 8 Sur 0.2 -- -- 95
2020-03-17 10:00:00 10.2 3 Sur 8 Sur 0.2 -- -- 96
2020-03-17 09:00:00 9.8 4 Sur 14 Sur 0 -- -- 96
2020-03-17 08:00:00 9.3 4 Sur 9 Sur 0.6 -- -- 96
2020-03-17 07:00:00 9.3 7 Sur 11 Sur 1 -- -- 96
2020-03-17 06:00:00 9.2 3 Sudoeste 6 Sudoeste 0.2 -- -- 96
2020-03-17 05:00:00 9.1 0 Calma 5 Sudoeste 0.8 -- -- 96
2020-03-17 04:00:00 9.1 2 Oeste 6 Sudeste 2.2 -- -- 95
2020-03-17 03:00:00 9.3 3 Sudeste 5 Sur 2.2 -- -- 95
2020-03-17 02:00:00 9.4 0 Calma 6 Sur 1.8 -- -- 94
2020-03-17 01:00:00 9.5 2 Sur 6 Sudeste 0.4 -- -- 94
2020-03-17 00:00:00 9.3 4 Sur 8 Sudoeste 0 -- -- 93
2020-03-16 23:00:00 9 5 Sur 9 Sur 0 -- -- 93
2020-03-16 22:00:00 8.7 6 Sur 13 Sur 0.4 -- -- 92
2020-03-16 21:00:00 8.8 8 Sur 13 Sur 0.4 -- -- 91
2020-03-16 20:00:00 8.9 4 Sudoeste 12 Sudoeste 0.6 -- -- 87
2020-03-16 19:00:00 9.6 3 Sur 15 Sudoeste 0 -- -- 82
2020-03-16 18:00:00 9.9 5 Sudoeste 17 Oeste 0 -- -- 78
2020-03-16 17:00:00 10 4 Oeste 10 Sudoeste 0.2 -- -- 83
2020-03-16 16:00:00 10.2 4 Sudoeste 14 Noroeste 0.2 -- -- 84
2020-03-16 15:00:00 10 8 Oeste 17 Oeste 0.4 -- -- 82
2020-03-16 14:00:00 9.5 6 Sudoeste 18 Oeste 1 -- -- 88
2020-03-16 13:00:00 10.3 8 Oeste 23 Noroeste 0.2 -- -- 79
2020-03-16 12:00:00 10.6 9 Oeste 36 Oeste 0 -- -- 79
2020-03-16 11:00:00 13.2 24 Noroeste 36 Oeste 0 -- -- 73
2020-03-16 10:00:00 15.9 2 Nordeste 9 Este 0 -- -- 79
2020-03-16 09:00:00 15.1 3 Oeste 8 Oeste 0 -- -- 90
2020-03-16 08:00:00 13.5 3 Sur 10 Sudeste 0 -- -- 93
2020-03-16 07:00:00 13.4 0 Calma 4 Nordeste 0.2 -- -- 94
2020-03-16 06:00:00 13.5 3 Este 5 Nordeste 0 -- -- 94
2020-03-16 05:00:00 13.5 0 Calma 10 Este 0.2 -- -- 93
2020-03-16 04:00:00 13.6 0 Calma -- -- 0 -- -- 92
2020-03-16 03:00:00 13.7 0 Calma -- -- 0 -- -- 92
2020-03-16 02:00:00 13.7 0 Calma 8 Este 0 -- -- 91
2020-03-16 01:00:00 13.9 3 Sudoeste 9 Sudoeste 0 -- -- 92
2020-03-16 00:00:00 13.4 4 Sudeste 8 Sur 0 -- -- 92
2020-03-15 23:00:00 13.1 0 Calma 6 Sudeste 0 -- -- 91
2020-03-15 22:00:00 13.3 3 Sur 6 Sur 0 -- -- 89
2020-03-15 21:00:00 14.1 3 Sudoeste 11 Noroeste 0 -- -- 86
2020-03-15 20:00:00 14.6 8 Noroeste 15 Noroeste 0 -- -- 84
2020-03-15 19:00:00 16.5 6 Nordeste 15 Nordeste 0 -- -- 72
2020-03-15 18:00:00 18 5 Este 23 Este 0 -- -- 67
2020-03-15 17:00:00 19 13 Sudeste 31 Sudeste 0 -- -- 65
2020-03-15 16:00:00 19.6 19 Este 31 Este 0 -- -- 62
2020-03-15 15:00:00 19.6 19 Este 32 Sudeste 0 -- -- 62
2020-03-15 14:00:00 20.2 17 Este 27 Este 0 -- -- 62
2020-03-15 13:00:00 19.1 12 Norte 23 Nordeste 0 -- -- 65
2020-03-15 12:00:00 18.7 10 Nordeste 18 Norte 0 -- -- 65
2020-03-15 11:00:00 18 7 Nordeste 13 Nordeste 0 -- -- 67
2020-03-15 10:00:00 16.5 5 Norte 9 Noroeste 0 -- -- 75
2020-03-15 09:00:00 14.3 0 Calma 2 Nordeste 0 -- -- 86
2020-03-15 08:00:00 13.1 0 Calma 2 Sudoeste 0 -- -- 89
2020-03-15 07:00:00 13.1 0 Calma 4 Sur 0 -- -- 88
2020-03-15 06:00:00 13.2 2 Sudeste 5 Sudoeste 0 -- -- 88
2020-03-15 05:00:00 13.4 2 Sudoeste 5 Sudoeste 0 -- -- 89
2020-03-15 04:00:00 13.3 0 Calma -- -- 0 -- -- 90
2020-03-15 03:00:00 13.3 0 Calma -- -- 0 -- -- 88
2020-03-15 02:00:00 13.4 0 Calma -- -- 0 -- -- 90
2020-03-15 01:00:00 13.3 0 Calma 5 Sudoeste 0 -- -- 92
2020-03-15 00:00:00 13.5 3 Sudoeste 6 Sudoeste 0 -- -- 92
2020-03-14 23:00:00 12.8 0 Calma 6 Sur 0 -- -- 92
2020-03-14 22:00:00 12.9 2 Este 7 Este 0 -- -- 90
2020-03-14 21:00:00 13.9 4 Nordeste 8 Nordeste 0 -- -- 86
2020-03-14 20:00:00 15 4 Nordeste 10 Nordeste 0 -- -- 80
2020-03-14 19:00:00 16.3 7 Nordeste 20 Nordeste 0 -- -- 71
2020-03-14 18:00:00 18.4 10 Este 25 Este 0 -- -- 70
2020-03-14 17:00:00 20.9 12 Nordeste 23 Este 0 -- -- 62
2020-03-14 16:00:00 21.8 12 Nordeste 26 Nordeste 0 -- -- 58
2020-03-14 15:00:00 21.5 12 Norte 23 Nordeste 0 -- -- 57
2020-03-14 14:00:00 21.9 11 Norte 23 Noroeste 0 -- -- 56
2020-03-14 13:00:00 21.2 4 Sudoeste 13 Noroeste 0 -- -- 56
2020-03-14 12:00:00 19.6 5 Norte 14 Nordeste 0 -- -- 62
2020-03-14 11:00:00 17.9 4 Norte 10 Nordeste 0 -- -- 68
2020-03-14 10:00:00 15.5 2 Sur 9 Sudoeste 0 -- -- 83
2020-03-14 09:00:00 12.3 6 Sudoeste 13 Sudoeste 0 -- -- 95
2020-03-14 08:00:00 10.2 6 Sur 13 Sur 0 -- -- 97
2020-03-14 07:00:00 9.4 9 Sur 12 Sudeste 0 -- -- 96
2020-03-14 06:00:00 10.2 4 Sudoeste 9 Sur 0 -- -- 96
2020-03-14 05:00:00 10.5 6 Sur 12 Sur 0 -- -- 95
2020-03-14 04:00:00 10.4 5 Sur 8 Sur 0 -- -- 95
2020-03-14 03:00:00 9.9 3 Sur 7 Oeste 0 -- -- 94
2020-03-14 02:00:00 9.6 0 Calma 5 Sudeste 0 -- -- 93
2020-03-14 01:00:00 10 4 Sur 6 Sudeste 0 -- -- 93
2020-03-14 00:00:00 10.2 3 Sudeste 4 Sudeste 0 -- -- 90
2020-03-13 23:00:00 11.4 3 Sur 4 Sudeste 0 -- -- 90
2020-03-13 22:00:00 12.4 3 Nordeste 6 Nordeste 0 -- -- 90
2020-03-13 21:00:00 13.2 3 Este 10 Nordeste 0 -- -- 88
2020-03-13 20:00:00 14.1 6 Nordeste 12 Nordeste 0 -- -- 86
2020-03-13 19:00:00 15.4 8 Nordeste 15 Nordeste 0 -- -- 80
2020-03-13 18:00:00 16.4 9 Nordeste 20 Este 0 -- -- 76
2020-03-13 17:00:00 17.7 10 Nordeste 19 Nordeste 0 -- -- 69
2020-03-13 16:00:00 17.8 12 Nordeste 23 Nordeste 0 -- -- 70
2020-03-13 15:00:00 17.8 11 Nordeste 20 Norte 0 -- -- 70
2020-03-13 14:00:00 18.7 9 Nordeste 21 Nordeste 0 -- -- 68
2020-03-13 13:00:00 16.9 14 Nordeste 22 Nordeste 0.2 -- -- 76
2020-03-13 12:00:00 17.5 9 Norte 18 Nordeste 0.2 -- -- 71
2020-03-13 11:00:00 17.3 5 Nordeste 14 Nordeste 0 -- -- 70
2020-03-13 10:00:00 15.8 5 Nordeste 12 Este 0 -- -- 77
2020-03-13 09:00:00 14.8 7 Norte 12 Nordeste 0 -- -- 84
2020-03-13 08:00:00 13.8 5 Nordeste 10 Norte 0 -- -- 90
2020-03-13 07:00:00 13.3 3 Sur 5 Sur 0 -- -- 92
2020-03-13 06:00:00 13.1 4 Sudoeste 9 Noroeste 0 -- -- 93
2020-03-13 05:00:00 13.3 4 Oeste 9 Noroeste 0 -- -- 94
2020-03-13 04:00:00 13.4 6 Oeste 9 Oeste 0 -- -- 94
2020-03-13 03:00:00 13.5 0 Calma 5 Sur 0 -- -- 95
2020-03-13 02:00:00 13.5 0 Calma 7 Sur 0 -- -- 95
2020-03-13 01:00:00 13.5 4 Sur 9 Sur 0 -- -- 95
2020-03-13 00:00:00 13.8 6 Sur 10 Sur 0 -- -- 95
2020-03-12 23:00:00 14.1 3 Sudeste 8 Sudeste 0 -- -- 95
2020-03-12 22:00:00 13.8 4 Nordeste 12 Norte 0 -- -- 94
2020-03-12 21:00:00 14.2 7 Nordeste 15 Nordeste 0 -- -- 93
2020-03-12 20:00:00 14.8 10 Nordeste 18 Nordeste 0 -- -- 90
2020-03-12 19:00:00 16.9 10 Norte 22 Norte 0 -- -- 80
2020-03-12 18:00:00 19.7 15 Norte 25 Nordeste 0 -- -- 67
2020-03-12 17:00:00 22.1 16 Nordeste 25 Nordeste 0 -- -- 54
2020-03-12 16:00:00 23.4 14 Nordeste 24 Nordeste 0 -- -- 54
2020-03-12 15:00:00 24.1 13 Nordeste 24 Nordeste 0 -- -- 51
2020-03-12 14:00:00 24.6 13 Norte 22 Norte 0 -- -- 50
2020-03-12 13:00:00 23.7 6 Noroeste 13 Norte 0 -- -- 50
2020-03-12 12:00:00 21.7 5 Norte 12 Norte 0 -- -- 53
2020-03-12 11:00:00 19.7 6 Norte 10 Norte 0 -- -- 59
2020-03-12 10:00:00 17.3 3 Oeste 9 Oeste 0 -- -- 64
2020-03-12 09:00:00 13.7 3 Oeste 5 Noroeste 0 -- -- 79
2020-03-12 08:00:00 9.1 0 Calma 6 Sur 0 -- -- 93
2020-03-12 07:00:00 8.5 3 Sur 5 Sur 0 -- -- 88
2020-03-12 06:00:00 9.3 5 Sur 9 Sur 0 -- -- 88
2020-03-12 05:00:00 9.3 3 Sur 10 Sur 0 -- -- 86
2020-03-12 04:00:00 10.6 7 Sur 10 Sur 0 -- -- 84
2020-03-12 03:00:00 10.5 7 Sur 11 Sur 0 -- -- 85
2020-03-12 02:00:00 10 7 Sur 9 Sur 0 -- -- 89
2020-03-12 01:00:00 10.5 3 Sudoeste 6 Sur 0 -- -- 86
2020-03-12 00:00:00 11.3 3 Sur 6 Sudoeste 0 -- -- 86
2020-03-11 23:00:00 12.5 5 Sur 9 Sur 0 -- -- 87
2020-03-11 22:00:00 13.6 6 Sur 11 Sur 0 -- -- 85
2020-03-11 21:00:00 14.8 4 Este 14 Nordeste 0 -- -- 82
2020-03-11 20:00:00 15.8 11 Nordeste 25 Norte 0 -- -- 78
2020-03-11 19:00:00 17.8 15 Norte 30 Norte 0 -- -- 68
2020-03-11 18:00:00 22.3 15 Norte 25 Norte 0 -- -- 43
2020-03-11 17:00:00 26.1 11 Nordeste 22 Este 0 -- -- 36
2020-03-11 16:00:00 27.9 13 Este 22 Este 0 -- -- 34
2020-03-11 15:00:00 28.8 9 Nordeste 22 Norte 0 -- -- 33
2020-03-11 14:00:00 28.6 13 Nordeste 22 Norte 0 -- -- 30
2020-03-11 13:00:00 27.7 9 Norte 15 Norte 0 -- -- 36
2020-03-11 12:00:00 26.6 3 Oeste 10 Oeste 0 -- -- 34
2020-03-11 11:00:00 24.3 5 Sur 11 Sudoeste 0 -- -- 39
2020-03-11 10:00:00 20.8 5 Sur 13 Sur 0 -- -- 46
2020-03-11 09:00:00 16.1 6 Sur 13 Sur 0 -- -- 63
2020-03-11 08:00:00 8.7 3 Sudoeste 12 Sur 0 -- -- 94
2020-03-11 07:00:00 6.2 2 Sur 5 Sur 0 -- -- 92
2020-03-11 06:00:00 6.5 6 Sudeste 8 Sudeste 0 -- -- 92
2020-03-11 05:00:00 7 0 Calma 5 Sudeste 0 -- -- 91
2020-03-11 04:00:00 7.5 3 Noroeste 6 Noroeste 0 -- -- 91
2020-03-11 03:00:00 7.9 0 Calma 4 Sudoeste 0 -- -- 89
2020-03-11 02:00:00 8.5 0 Calma 4 Sudoeste 0 -- -- 89
2020-03-11 01:00:00 9.1 3 Sur 4 Sudoeste 0 -- -- 87
2020-03-11 00:00:00 10.2 2 Sur 8 Sur 0 -- -- 84
2020-03-10 23:00:00 10.9 5 Sudeste 7 Sudeste 0 -- -- 82
2020-03-10 22:00:00 12.8 4 Nordeste 8 Nordeste 0 -- -- 77
2020-03-10 21:00:00 14.8 5 Sudeste 14 Norte 0 -- -- 69
2020-03-10 20:00:00 17.9 5 Nordeste 12 Noroeste 0 -- -- 57
2020-03-10 19:00:00 22.1 0 Calma 6 Sudoeste 0 -- -- 52
2020-03-10 18:00:00 25.5 6 Sur 13 Sur 0 -- -- 32
2020-03-10 17:00:00 24.6 7 Sudeste 15 Sur 0 -- -- 33
2020-03-10 16:00:00 25.4 8 Sudoeste 16 Sur 0 -- -- 30
2020-03-10 15:00:00 23.3 8 Sur 13 Sur 0 -- -- 33
2020-03-10 14:00:00 22.1 6 Sur 15 Sudoeste 0 -- -- 34
2020-03-10 13:00:00 20.5 5 Sudoeste 17 Oeste 0 -- -- 36
2020-03-10 12:00:00 19.9 7 Sudoeste 16 Sudoeste 0 -- -- 37
2020-03-10 11:00:00 19.1 6 Sudoeste 14 Sudoeste 0 -- -- 41
2020-03-10 10:00:00 18.6 7 Sudoeste 16 Sur 0 -- -- 42
2020-03-10 09:00:00 13.6 9 Sur 14 Sudeste 0 -- -- 57
2020-03-10 08:00:00 5.9 0 Calma 4 Sur 0 -- -- 91
2020-03-10 07:00:00 5.1 0 Calma 6 Sur 0 -- -- 88
2020-03-10 06:00:00 5.5 2 Sur 8 Sur 0 -- -- 86
2020-03-10 05:00:00 5.7 0 Calma 5 Sudeste 0 -- -- 86
2020-03-10 04:00:00 6.8 3 Sudoeste 8 Sur 0 -- -- 84
2020-03-10 03:00:00 7.5 2 Sur 7 Sur 0 -- -- 81
2020-03-10 02:00:00 8.2 3 Sur 16 Oeste 0 -- -- 79
2020-03-10 01:00:00 9 4 Sudeste 13 Sur 0 -- -- 76
2020-03-10 00:00:00 9.3 3 Sur 14 Sudeste 0 -- -- 76
2020-03-09 23:00:00 9.7 0 Calma 4 Sur 0 -- -- 75
2020-03-09 22:00:00 11.4 3 Noroeste 6 Sudeste 0 -- -- 67
2020-03-09 21:00:00 13.7 3 Sudeste 6 Nordeste 0 -- -- 59
2020-03-09 20:00:00 18.5 5 Nordeste 21 Nordeste 0 -- -- 39
2020-03-09 19:00:00 20.2 10 Nordeste 19 Nordeste 0 -- -- 34
2020-03-09 18:00:00 23.3 11 Norte 20 Norte 0 -- -- 28
2020-03-09 17:00:00 24.4 7 Noroeste 18 Oeste 0 -- -- 28
2020-03-09 16:00:00 22.4 6 Norte 23 Norte 0 -- -- 30
2020-03-09 15:00:00 23.2 9 Oeste 19 Noroeste 0 -- -- 32
2020-03-09 14:00:00 21.7 8 Norte 17 Oeste 0 -- -- 36
2020-03-09 13:00:00 20.2 10 Noroeste 21 Oeste 0 -- -- 39
2020-03-09 12:00:00 18.9 10 Oeste 16 Sudoeste 0 -- -- 41
2020-03-09 11:00:00 17.4 8 Oeste 17 Oeste 0 -- -- 49
2020-03-09 10:00:00 15.6 6 Oeste 19 Oeste 0 -- -- 56
2020-03-09 09:00:00 13.2 8 Oeste 14 Oeste 0 -- -- 64
2020-03-09 08:00:00 10 5 Sudoeste 11 Sur 0 -- -- 73
2020-03-09 07:00:00 8.8 7 Sur 12 Sur 0 -- -- 76
2020-03-09 06:00:00 10.5 5 Sur 10 Oeste 0 -- -- 68
2020-03-09 05:00:00 12.4 7 Sudeste 17 Sudeste 0 -- -- 61
2020-03-09 04:00:00 12.3 6 Oeste 14 Sudoeste 0 -- -- 61
2020-03-09 03:00:00 11.1 4 Sur 10 Sur 0 -- -- 69
2020-03-09 02:00:00 12 5 Sur 14 Sur 0 -- -- 67
2020-03-09 01:00:00 11.8 3 Sudoeste 14 Sudeste 0 -- -- 76
2020-03-09 00:00:00 11.7 8 Sur 13 Sur 0 -- -- 83
2020-03-08 23:00:00 13 3 Sur 11 Sur 0 -- -- 78
2020-03-08 22:00:00 14.7 5 Nordeste 13 Norte 0 -- -- 73
2020-03-08 21:00:00 15.2 7 Nordeste 13 Nordeste 0 -- -- 72
2020-03-08 20:00:00 15.9 7 Nordeste 20 Norte 0 -- -- 70
2020-03-08 19:00:00 20.4 4 Sudoeste 23 Sudoeste 0 -- -- 34
2020-03-08 18:00:00 24.6 10 Oeste 27 Oeste 0 -- -- 26
2020-03-08 17:00:00 26 13 Oeste 26 Sudoeste 0 -- -- 24
2020-03-08 16:00:00 26.2 10 Oeste 25 Oeste 0 -- -- 24
2020-03-08 15:00:00 25.5 10 Oeste 23 Oeste 0 -- -- 25
2020-03-08 14:00:00 23.8 10 Noroeste 22 Noroeste 0 -- -- 28
2020-03-08 13:00:00 22.2 12 Noroeste 27 Noroeste 0 -- -- 31
2020-03-08 12:00:00 20.8 10 Sudoeste 19 Sudoeste 0 -- -- 37
2020-03-08 11:00:00 18.7 4 Sudoeste 12 Oeste 0 -- -- 43
2020-03-08 10:00:00 15.3 7 Sudoeste 19 Sudoeste 0 -- -- 53
2020-03-08 09:00:00 12.3 9 Sur 15 Sur 0 -- -- 60
2020-03-08 08:00:00 8 11 Sur 16 Sur 0 -- -- 74
2020-03-08 07:00:00 8 10 Sur 16 Sur 0 -- -- 73
2020-03-08 06:00:00 8.1 13 Sur 19 Sur 0 -- -- 72
2020-03-08 05:00:00 8 8 Sur 17 Sur 0 -- -- 72
2020-03-08 04:00:00 8.5 11 Sur 17 Sur 0 -- -- 72
2020-03-08 03:00:00 8.1 8 Sur 13 Sur 0 -- -- 74
2020-03-08 02:00:00 8.5 7 Sur 12 Sur 0 -- -- 73
2020-03-08 01:00:00 8 5 Sur 12 Sur 0 -- -- 77
2020-03-08 00:00:00 7.9 6 Sudeste 14 Sur 0 -- -- 80
2020-03-07 23:00:00 7.5 4 Sur 6 Sudeste 0 -- -- 81
2020-03-07 22:00:00 8.1 2 Sudoeste 7 Sudeste 0 -- -- 80
2020-03-07 21:00:00 9.9 2 Nordeste 10 Oeste 0 -- -- 71
2020-03-07 20:00:00 11.8 3 Sudeste 8 Sur 0 -- -- 65
2020-03-07 19:00:00 16.6 3 Nordeste 9 Norte 0 -- -- 50
2020-03-07 18:00:00 19.8 5 Nordeste 24 Norte 0 -- -- 37
2020-03-07 17:00:00 19.9 13 Norte 29 Norte 0 -- -- 34
2020-03-07 16:00:00 21.7 14 Noroeste 28 Noroeste 0 -- -- 32
2020-03-07 15:00:00 20.5 9 Oeste 24 Norte 0 -- -- 35
2020-03-07 14:00:00 19.2 15 Noroeste 28 Norte 0 -- -- 36
2020-03-07 13:00:00 17.3 14 Noroeste 26 Noroeste 0 -- -- 38
2020-03-07 12:00:00 14.6 19 Noroeste 32 Oeste 0 -- -- 41
2020-03-07 11:00:00 13.5 6 Oeste 24 Noroeste 0 -- -- 42
2020-03-07 10:00:00 12.5 5 Oeste 33 Noroeste 0 -- -- 44
2020-03-07 09:00:00 11.5 10 Noroeste 21 Oeste 0 -- -- 45
2020-03-07 08:00:00 6.9 3 Sur 13 Sur 0 -- -- 64
2020-03-07 07:00:00 8.7 5 Sur 17 Noroeste 0 -- -- 54
2020-03-07 06:00:00 9.5 12 Oeste 23 Oeste 0 -- -- 49
2020-03-07 05:00:00 10.2 13 Oeste 24 Noroeste 0 -- -- 46
2020-03-07 04:00:00 8.9 8 Oeste 17 Oeste 0 -- -- 48
2020-03-07 03:00:00 9.4 7 Sur 20 Noroeste 0 -- -- 47
2020-03-07 02:00:00 10.7 7 Norte 17 Noroeste 0 -- -- 41
2020-03-07 01:00:00 11 9 Noroeste 24 Noroeste 0 -- -- 40
2020-03-07 00:00:00 13 15 Noroeste 27 Noroeste 0 -- -- 34
2020-03-06 23:00:00 13.1 5 Noroeste 22 Noroeste 0 -- -- 36
2020-03-06 22:00:00 13.3 13 Noroeste 27 Noroeste 0 -- -- 34
2020-03-06 21:00:00 13.5 9 Norte 21 Noroeste 0 -- -- 34
2020-03-06 20:00:00 13.5 7 Noroeste 32 Noroeste 0 -- -- 33
2020-03-06 19:00:00 14.9 15 Noroeste 36 Noroeste 0 -- -- 32
2020-03-06 18:00:00 16.4 22 Norte 33 Norte 0 -- -- 36
2020-03-06 17:00:00 15.7 16 Norte 39 Noroeste 0 -- -- 39
2020-03-06 16:00:00 18.4 23 Noroeste 48 Noroeste 0 -- -- 26
2020-03-06 15:00:00 18.9 21 Noroeste 55 Oeste 0 -- -- 28
2020-03-06 14:00:00 19.4 28 Noroeste 52 Noroeste 0 -- -- 27
2020-03-06 13:00:00 17.1 23 Noroeste 44 Oeste 0 -- -- 35
2020-03-06 12:00:00 16.2 23 Noroeste 58 Oeste 0 -- -- 42
2020-03-06 11:00:00 16 30 Oeste 51 Noroeste 0 -- -- 44
2020-03-06 10:00:00 15 26 Oeste 54 Oeste 0 -- -- 48
2020-03-06 09:00:00 13.4 17 Oeste 34 Oeste 0 -- -- 53
2020-03-06 08:00:00 11.2 9 Sudoeste 24 Sudoeste 0 -- -- 58
2020-03-06 07:00:00 11.9 10 Oeste 27 Oeste 0 -- -- 55
2020-03-06 06:00:00 12.5 9 Oeste 30 Oeste 0 -- -- 56
2020-03-06 05:00:00 13.4 13 Oeste 32 Oeste 0 -- -- 55
2020-03-06 04:00:00 14.4 17 Oeste 37 Oeste 0 -- -- 54
2020-03-06 03:00:00 14.8 17 Oeste 35 Noroeste 0 -- -- 54
2020-03-06 02:00:00 15.2 13 Oeste 29 Oeste 0 -- -- 53
2020-03-06 01:00:00 15.9 14 Oeste 40 Noroeste 0 -- -- 51
2020-03-06 00:00:00 16.3 12 Oeste 26 Oeste 0 -- -- 49
2020-03-05 23:00:00 15.4 9 Oeste 18 Oeste 0 -- -- 49
2020-03-05 22:00:00 17.1 8 Sudoeste 28 Noroeste 0 -- -- 43
2020-03-05 21:00:00 18.6 10 Noroeste 39 Noroeste 0 -- -- 39
2020-03-05 20:00:00 19 10 Oeste 32 Noroeste 0 -- -- 41
2020-03-05 19:00:00 20.2 8 Oeste 52 Oeste 0 -- -- 46
2020-03-05 18:00:00 21.6 22 Oeste 48 Sudoeste 0 -- -- 42
2020-03-05 17:00:00 21.8 19 Oeste 58 Sudoeste 0 -- -- 47
2020-03-05 16:00:00 23.1 24 Oeste 63 Oeste 0 -- -- 44
2020-03-05 15:00:00 23.7 31 Oeste 52 Oeste 0 -- -- 42
2020-03-05 14:00:00 24 19 Oeste 46 Oeste 0 -- -- 41
2020-03-05 13:00:00 23.8 17 Oeste 54 Noroeste 0 -- -- 42
2020-03-05 12:00:00 21.9 30 Oeste 54 Noroeste 0 -- -- 45
2020-03-05 11:00:00 20.9 21 Oeste 42 Noroeste 0 -- -- 48
2020-03-05 10:00:00 18.9 14 Oeste 23 Oeste 0 -- -- 56
2020-03-05 09:00:00 14.9 6 Oeste 12 Sur 0 -- -- 70
2020-03-05 08:00:00 12.2 6 Sur 9 Sur 0 -- -- 74
2020-03-05 07:00:00 12.6 3 Sudoeste 12 Sudoeste 0 -- -- 70
2020-03-05 06:00:00 13 7 Sudoeste 14 Sur 0 -- -- 68
2020-03-05 05:00:00 11.1 4 Sur 12 Sur 0 -- -- 76
2020-03-05 04:00:00 11.4 6 Sur 14 Sudeste 0 -- -- 76
2020-03-05 03:00:00 10.9 9 Sur 14 Sur 0 -- -- 79
2020-03-05 02:00:00 11.5 5 Sur 10 Sur 0 -- -- 75
2020-03-05 01:00:00 12.8 6 Sur 10 Sudeste 0 -- -- 70
2020-03-05 00:00:00 14.5 7 Sur 19 Sur 0 -- -- 65
2020-03-04 23:00:00 16.4 13 Sur 23 Sur 0 -- -- 58
2020-03-04 22:00:00 15.7 4 Sudoeste 15 Sur 0 -- -- 60
2020-03-04 21:00:00 16.3 7 Sur 15 Sudoeste 0 -- -- 59
2020-03-04 20:00:00 18 8 Sur 20 Sudoeste 0 -- -- 54
2020-03-04 19:00:00 19.9 13 Sudoeste 39 Oeste 0 -- -- 49
2020-03-04 18:00:00 22.2 19 Oeste 40 Oeste 0 -- -- 44
2020-03-04 17:00:00 23.3 21 Oeste 41 Oeste 0 -- -- 42
2020-03-04 16:00:00 23.6 21 Oeste 40 Oeste 0 -- -- 43
2020-03-04 15:00:00 22.4 19 Oeste 34 Oeste 0 -- -- 46
2020-03-04 14:00:00 23.2 17 Oeste 38 Oeste 0 -- -- 49
2020-03-04 13:00:00 22.7 18 Oeste 46 Oeste 0 -- -- 49
2020-03-04 12:00:00 22.3 15 Oeste 31 Noroeste 0 -- -- 51
2020-03-04 11:00:00 21.4 15 Oeste 33 Oeste 0 -- -- 54
2020-03-04 10:00:00 20.1 12 Oeste 39 Oeste 0 -- -- 59
2020-03-04 09:00:00 19.4 12 Oeste 35 Oeste 0 -- -- 60
2020-03-04 08:00:00 17.8 9 Oeste 27 Oeste 0 -- -- 64
2020-03-04 07:00:00 17.6 5 Sudoeste 30 Oeste 0 -- -- 65
2020-03-04 06:00:00 17.6 7 Oeste 33 Oeste 0 -- -- 65
2020-03-04 05:00:00 17.9 13 Oeste 26 Oeste 0 -- -- 64
2020-03-04 04:00:00 17.8 12 Oeste 30 Oeste 0 -- -- 65
2020-03-04 03:00:00 17.7 9 Oeste 21 Oeste 0 -- -- 64
2020-03-04 02:00:00 18 12 Noroeste 30 Oeste 0 -- -- 64
2020-03-04 01:00:00 18.1 8 Oeste 43 Oeste 0 -- -- 63
2020-03-04 00:00:00 18.4 19 Noroeste 46 Noroeste 0 -- -- 60